sensor_id;sensor_type;location;lat;lon;timestamp;temperature;humidity
22956;DHT22;40888;48.148;11.526;2023-05-21T00:01:40;16.70;99.90
22956;DHT22;40888;48.148;11.526;2023-05-21T00:04:07;16.60;99.90
22956;DHT22;40888;48.148;11.526;2023-05-21T00:06:36;16.70;99.90
22956;DHT22;40888;48.148;11.526;2023-05-21T00:09:03;16.60;99.90
22956;DHT22;40888;48.148;11.526;2023-05-21T00:11:29;16.60;99.90
22956;DHT22;40888;48.148;11.526;2023-05-21T00:13:55;16.60;99.90
22956;DHT22;40888;48.148;11.526;2023-05-21T00:16:22;16.60;99.90
22956;DHT22;40888;48.148;11.526;2023-05-21T00:18:48;16.60;99.90
22956;DHT22;40888;48.148;11.526;2023-05-21T00:21:15;16.60;99.90
22956;DHT22;40888;48.148;11.526;2023-05-21T00:23:48;16.50;99.90
22956;DHT22;40888;48.148;11.526;2023-05-21T00:26:14;16.40;99.90
22956;DHT22;40888;48.148;11.526;2023-05-21T00:28:40;16.50;99.90
22956;DHT22;40888;48.148;11.526;2023-05-21T00:31:06;16.50;99.90
22956;DHT22;40888;48.148;11.526;2023-05-21T00:33:31;16.50;99.90
22956;DHT22;40888;48.148;11.526;2023-05-21T00:35:57;16.50;99.90
22956;DHT22;40888;48.148;11.526;2023-05-21T00:38:23;16.50;99.90
22956;DHT22;40888;48.148;11.526;2023-05-21T00:40:49;16.50;99.90
22956;DHT22;40888;48.148;11.526;2023-05-21T00:43:15;16.50;99.90
22956;DHT22;40888;48.148;11.526;2023-05-21T00:45:41;16.40;99.90
22956;DHT22;40888;48.148;11.526;2023-05-21T00:48:12;16.30;99.90
22956;DHT22;40888;48.148;11.526;2023-05-21T00:50:40;16.30;99.90
22956;DHT22;40888;48.148;11.526;2023-05-21T00:53:06;16.20;99.90
22956;DHT22;40888;48.148;11.526;2023-05-21T00:55:38;16.20;99.90
22956;DHT22;40888;48.148;11.526;2023-05-21T00:58:05;16.20;99.90
22956;DHT22;40888;48.148;11.526;2023-05-21T01:00:33;16.10;99.90
22956;DHT22;40888;48.148;11.526;2023-05-21T01:02:59;16.10;99.90
22956;DHT22;40888;48.148;11.526;2023-05-21T01:05:29;16.10;99.90
22956;DHT22;40888;48.148;11.526;2023-05-21T01:07:56;16.10;99.90
22956;DHT22;40888;48.148;11.526;2023-05-21T01:10:23;16.10;99.90
22956;DHT22;40888;48.148;11.526;2023-05-21T01:12:49;16.10;99.90
22956;DHT22;40888;48.148;11.526;2023-05-21T01:15:16;16.00;99.90
22956;DHT22;40888;48.148;11.526;2023-05-21T01:17:42;16.10;99.90
22956;DHT22;40888;48.148;11.526;2023-05-21T01:20:10;16.10;99.90
22956;DHT22;40888;48.148;11.526;2023-05-21T01:22:52;16.10;99.90
22956;DHT22;40888;48.148;11.526;2023-05-21T01:25:18;16.10;99.90
22956;DHT22;40888;48.148;11.526;2023-05-21T01:27:44;16.00;99.90
22956;DHT22;40888;48.148;11.526;2023-05-21T01:30:10;16.00;99.90
22956;DHT22;40888;48.148;11.526;2023-05-21T01:35:13;15.90;99.90
22956;DHT22;40888;48.148;11.526;2023-05-21T01:38:28;16.00;99.90
22956;DHT22;40888;48.148;11.526;2023-05-21T01:41:00;15.90;99.90
22956;DHT22;40888;48.148;11.526;2023-05-21T01:43:33;15.90;99.90
22956;DHT22;40888;48.148;11.526;2023-05-21T01:45:59;15.90;99.90
22956;DHT22;40888;48.148;11.526;2023-05-21T01:48:29;16.00;99.90
22956;DHT22;40888;48.148;11.526;2023-05-21T01:50:59;15.90;99.90
22956;DHT22;40888;48.148;11.526;2023-05-21T01:53:26;15.90;99.90
22956;DHT22;40888;48.148;11.526;2023-05-21T01:55:52;15.90;99.90
22956;DHT22;40888;48.148;11.526;2023-05-21T01:58:19;15.90;99.90
22956;DHT22;40888;48.148;11.526;2023-05-21T02:00:45;15.90;99.90
22956;DHT22;40888;48.148;11.526;2023-05-21T02:03:12;15.90;99.90
22956;DHT22;40888;48.148;11.526;2023-05-21T02:05:39;15.90;99.90
22956;DHT22;40888;48.148;11.526;2023-05-21T02:08:05;15.90;99.90
22956;DHT22;40888;48.148;11.526;2023-05-21T02:10:33;15.80;99.90
22956;DHT22;40888;48.148;11.526;2023-05-21T02:12:59;15.80;99.90
22956;DHT22;40888;48.148;11.526;2023-05-21T02:15:25;15.70;99.90
22956;DHT22;40888;48.148;11.526;2023-05-21T02:17:51;15.70;99.90
22956;DHT22;40888;48.148;11.526;2023-05-21T02:20:18;15.70;99.90
22956;DHT22;40888;48.148;11.526;2023-05-21T02:22:48;15.70;99.90
22956;DHT22;40888;48.148;11.526;2023-05-21T02:25:15;15.60;99.90
22956;DHT22;40888;48.148;11.526;2023-05-21T02:27:42;15.60;99.90
22956;DHT22;40888;48.148;11.526;2023-05-21T02:30:10;15.60;99.90
22956;DHT22;40888;48.148;11.526;2023-05-21T02:32:36;15.70;99.90
22956;DHT22;40888;48.148;11.526;2023-05-21T02:35:03;15.70;99.90
22956;DHT22;40888;48.148;11.526;2023-05-21T02:37:30;15.70;99.90
22956;DHT22;40888;48.148;11.526;2023-05-21T02:39:59;15.60;99.90
22956;DHT22;40888;48.148;11.526;2023-05-21T02:42:25;15.60;99.90
22956;DHT22;40888;48.148;11.526;2023-05-21T02:44:51;15.60;99.90
22956;DHT22;40888;48.148;11.526;2023-05-21T02:47:18;15.60;99.90
22956;DHT22;40888;48.148;11.526;2023-05-21T02:49:44;15.60;99.90
22956;DHT22;40888;48.148;11.526;2023-05-21T02:52:10;15.60;99.90
22956;DHT22;40888;48.148;11.526;2023-05-21T02:54:36;15.50;99.90
22956;DHT22;40888;48.148;11.526;2023-05-21T02:57:02;15.50;99.90
22956;DHT22;40888;48.148;11.526;2023-05-21T02:59:27;15.50;99.90
22956;DHT22;40888;48.148;11.526;2023-05-21T03:01:53;15.40;99.90
22956;DHT22;40888;48.148;11.526;2023-05-21T03:04:19;15.40;99.90
22956;DHT22;40888;48.148;11.526;2023-05-21T03:06:48;15.30;99.90
22956;DHT22;40888;48.148;11.526;2023-05-21T03:09:19;15.30;99.90
22956;DHT22;40888;48.148;11.526;2023-05-21T03:11:46;15.30;99.90
22956;DHT22;40888;48.148;11.526;2023-05-21T03:14:12;15.20;99.90
22956;DHT22;40888;48.148;11.526;2023-05-21T03:16:39;15.20;99.90
22956;DHT22;40888;48.148;11.526;2023-05-21T03:19:10;15.20;99.90
22956;DHT22;40888;48.148;11.526;2023-05-21T03:21:36;15.20;99.90
22956;DHT22;40888;48.148;11.526;2023-05-21T03:24:04;15.10;99.90
22956;DHT22;40888;48.148;11.526;2023-05-21T03:26:30;15.20;99.90
22956;DHT22;40888;48.148;11.526;2023-05-21T03:28:56;15.20;99.90
22956;DHT22;40888;48.148;11.526;2023-05-21T03:31:23;15.20;99.90
22956;DHT22;40888;48.148;11.526;2023-05-21T03:33:49;15.20;99.90
22956;DHT22;40888;48.148;11.526;2023-05-21T03:36:16;15.10;99.90
22956;DHT22;40888;48.148;11.526;2023-05-21T03:38:41;15.20;99.90
22956;DHT22;40888;48.148;11.526;2023-05-21T03:41:07;15.10;99.90
22956;DHT22;40888;48.148;11.526;2023-05-21T03:43:33;15.10;99.90
22956;DHT22;40888;48.148;11.526;2023-05-21T03:45:59;15.00;99.90
22956;DHT22;40888;48.148;11.526;2023-05-21T03:48:25;15.00;99.90
22956;DHT22;40888;48.148;11.526;2023-05-21T03:50:50;15.00;99.90
22956;DHT22;40888;48.148;11.526;2023-05-21T03:53:16;15.00;99.90
22956;DHT22;40888;48.148;11.526;2023-05-21T03:55:42;14.80;99.90
22956;DHT22;40888;48.148;11.526;2023-05-21T03:58:08;14.90;99.90
22956;DHT22;40888;48.148;11.526;2023-05-21T04:00:35;14.90;99.90
22956;DHT22;40888;48.148;11.526;2023-05-21T04:03:05;15.00;99.90
22956;DHT22;40888;48.148;11.526;2023-05-21T04:05:33;15.00;99.90
22956;DHT22;40888;48.148;11.526;2023-05-21T04:07:59;15.00;99.90
22956;DHT22;40888;48.148;11.526;2023-05-21T04:10:25;15.00;99.90
22956;DHT22;40888;48.148;11.526;2023-05-21T04:12:51;15.00;99.90
22956;DHT22;40888;48.148;11.526;2023-05-21T04:15:18;14.90;99.90
22956;DHT22;40888;48.148;11.526;2023-05-21T04:17:44;14.90;99.90
22956;DHT22;40888;48.148;11.526;2023-05-21T04:20:12;14.90;99.90
22956;DHT22;40888;48.148;11.526;2023-05-21T04:22:38;14.90;99.90
22956;DHT22;40888;48.148;11.526;2023-05-21T04:25:04;14.90;99.90
22956;DHT22;40888;48.148;11.526;2023-05-21T04:27:30;14.90;99.90
22956;DHT22;40888;48.148;11.526;2023-05-21T04:29:56;14.90;99.90
22956;DHT22;40888;48.148;11.526;2023-05-21T04:32:23;14.90;99.90
22956;DHT22;40888;48.148;11.526;2023-05-21T04:34:48;14.90;99.90
22956;DHT22;40888;48.148;11.526;2023-05-21T04:37:15;14.90;99.90
22956;DHT22;40888;48.148;11.526;2023-05-21T04:39:44;14.90;99.90
22956;DHT22;40888;48.148;11.526;2023-05-21T04:42:11;14.90;99.90
22956;DHT22;40888;48.148;11.526;2023-05-21T04:44:37;14.90;99.90
22956;DHT22;40888;48.148;11.526;2023-05-21T04:47:05;14.80;99.90
22956;DHT22;40888;48.148;11.526;2023-05-21T04:49:30;14.80;99.90
22956;DHT22;40888;48.148;11.526;2023-05-21T04:52:00;14.80;99.90
22956;DHT22;40888;48.148;11.526;2023-05-21T04:54:27;14.90;99.90
22956;DHT22;40888;48.148;11.526;2023-05-21T04:56:53;14.90;99.90
22956;DHT22;40888;48.148;11.526;2023-05-21T04:59:19;15.00;99.90
22956;DHT22;40888;48.148;11.526;2023-05-21T05:01:46;15.00;99.90
22956;DHT22;40888;48.148;11.526;2023-05-21T05:04:11;15.00;99.90
22956;DHT22;40888;48.148;11.526;2023-05-21T05:06:37;14.90;99.90
22956;DHT22;40888;48.148;11.526;2023-05-21T05:09:03;15.00;99.90
22956;DHT22;40888;48.148;11.526;2023-05-21T05:11:29;15.10;99.90
22956;DHT22;40888;48.148;11.526;2023-05-21T05:13:55;15.10;99.90
22956;DHT22;40888;48.148;11.526;2023-05-21T05:16:21;15.10;99.90
22956;DHT22;40888;48.148;11.526;2023-05-21T05:18:53;15.10;99.90
22956;DHT22;40888;48.148;11.526;2023-05-21T05:21:21;15.20;99.90
22956;DHT22;40888;48.148;11.526;2023-05-21T05:23:47;15.20;99.90
22956;DHT22;40888;48.148;11.526;2023-05-21T05:26:12;15.30;99.90
22956;DHT22;40888;48.148;11.526;2023-05-21T05:28:38;15.30;99.90
22956;DHT22;40888;48.148;11.526;2023-05-21T05:31:04;15.40;99.90
22956;DHT22;40888;48.148;11.526;2023-05-21T05:33:30;15.40;99.90
22956;DHT22;40888;48.148;11.526;2023-05-21T05:35:55;15.50;99.90
22956;DHT22;40888;48.148;11.526;2023-05-21T05:38:21;15.60;99.90
22956;DHT22;40888;48.148;11.526;2023-05-21T05:40:47;15.60;99.90
22956;DHT22;40888;48.148;11.526;2023-05-21T05:43:12;15.60;99.90
22956;DHT22;40888;48.148;11.526;2023-05-21T05:45:38;15.70;99.90
22956;DHT22;40888;48.148;11.526;2023-05-21T05:48:05;15.70;99.90
22956;DHT22;40888;48.148;11.526;2023-05-21T05:50:31;15.80;99.90
22956;DHT22;40888;48.148;11.526;2023-05-21T05:52:57;15.90;99.90
22956;DHT22;40888;48.148;11.526;2023-05-21T05:55:22;15.90;99.90
22956;DHT22;40888;48.148;11.526;2023-05-21T05:57:49;15.90;99.90
22956;DHT22;40888;48.148;11.526;2023-05-21T06:00:15;15.90;99.90
22956;DHT22;40888;48.148;11.526;2023-05-21T06:02:41;16.00;99.90
22956;DHT22;40888;48.148;11.526;2023-05-21T06:05:07;16.00;99.90
22956;DHT22;40888;48.148;11.526;2023-05-21T06:07:36;16.00;99.90
22956;DHT22;40888;48.148;11.526;2023-05-21T06:10:04;16.00;99.90
22956;DHT22;40888;48.148;11.526;2023-05-21T06:12:30;16.10;99.90
22956;DHT22;40888;48.148;11.526;2023-05-21T06:17:26;16.30;99.90
22956;DHT22;40888;48.148;11.526;2023-05-21T06:19:52;16.30;99.90
22956;DHT22;40888;48.148;11.526;2023-05-21T06:22:17;16.40;99.90
22956;DHT22;40888;48.148;11.526;2023-05-21T06:24:43;16.50;99.90
22956;DHT22;40888;48.148;11.526;2023-05-21T06:27:09;16.50;99.90
22956;DHT22;40888;48.148;11.526;2023-05-21T06:29:34;16.60;99.90
22956;DHT22;40888;48.148;11.526;2023-05-21T06:32:00;16.70;99.90
22956;DHT22;40888;48.148;11.526;2023-05-21T06:34:26;16.80;99.90
22956;DHT22;40888;48.148;11.526;2023-05-21T06:36:53;16.80;99.90
22956;DHT22;40888;48.148;11.526;2023-05-21T06:39:19;16.90;99.90
22956;DHT22;40888;48.148;11.526;2023-05-21T06:41:45;17.00;99.90
22956;DHT22;40888;48.148;11.526;2023-05-21T06:44:10;17.20;99.90
22956;DHT22;40888;48.148;11.526;2023-05-21T06:46:36;17.20;98.70
22956;DHT22;40888;48.148;11.526;2023-05-21T06:49:03;17.30;98.20
22956;DHT22;40888;48.148;11.526;2023-05-21T06:51:31;17.30;95.70
22956;DHT22;40888;48.148;11.526;2023-05-21T06:53:57;17.50;95.80
22956;DHT22;40888;48.148;11.526;2023-05-21T06:56:23;17.60;95.50
22956;DHT22;40888;48.148;11.526;2023-05-21T06:58:49;17.70;91.80
22956;DHT22;40888;48.148;11.526;2023-05-21T07:01:15;17.80;92.30
22956;DHT22;40888;48.148;11.526;2023-05-21T07:03:40;17.80;93.40
22956;DHT22;40888;48.148;11.526;2023-05-21T07:06:06;17.90;88.50
22956;DHT22;40888;48.148;11.526;2023-05-21T07:08:32;18.00;86.10
22956;DHT22;40888;48.148;11.526;2023-05-21T07:10:58;18.10;85.70
22956;DHT22;40888;48.148;11.526;2023-05-21T07:13:23;18.30;83.40
22956;DHT22;40888;48.148;11.526;2023-05-21T07:15:49;18.40;78.70
22956;DHT22;40888;48.148;11.526;2023-05-21T07:18:15;18.40;76.70
22956;DHT22;40888;48.148;11.526;2023-05-21T07:20:41;18.50;77.90
22956;DHT22;40888;48.148;11.526;2023-05-21T07:23:07;18.60;76.70
22956;DHT22;40888;48.148;11.526;2023-05-21T07:25:33;18.60;75.00
22956;DHT22;40888;48.148;11.526;2023-05-21T07:27:59;18.70;77.60
22956;DHT22;40888;48.148;11.526;2023-05-21T07:30:25;18.70;74.00
22956;DHT22;40888;48.148;11.526;2023-05-21T07:32:51;18.70;70.10
22956;DHT22;40888;48.148;11.526;2023-05-21T07:35:17;18.80;70.50
22956;DHT22;40888;48.148;11.526;2023-05-21T07:37:42;18.80;68.60
22956;DHT22;40888;48.148;11.526;2023-05-21T07:40:08;18.90;67.00
22956;DHT22;40888;48.148;11.526;2023-05-21T07:42:34;19.00;66.20
22956;DHT22;40888;48.148;11.526;2023-05-21T07:45:00;19.10;66.90
22956;DHT22;40888;48.148;11.526;2023-05-21T07:47:26;19.00;64.90
22956;DHT22;40888;48.148;11.526;2023-05-21T07:49:52;19.10;64.10
22956;DHT22;40888;48.148;11.526;2023-05-21T07:52:18;19.10;62.30
22956;DHT22;40888;48.148;11.526;2023-05-21T07:54:43;19.10;61.90
22956;DHT22;40888;48.148;11.526;2023-05-21T07:57:09;19.20;61.80
22956;DHT22;40888;48.148;11.526;2023-05-21T07:59:35;19.20;61.00
22956;DHT22;40888;48.148;11.526;2023-05-21T08:02:01;19.20;61.20
22956;DHT22;40888;48.148;11.526;2023-05-21T08:04:26;19.30;61.20
22956;DHT22;40888;48.148;11.526;2023-05-21T08:06:52;19.30;63.60
22956;DHT22;40888;48.148;11.526;2023-05-21T08:09:18;19.30;62.10
22956;DHT22;40888;48.148;11.526;2023-05-21T08:11:44;19.20;63.20
22956;DHT22;40888;48.148;11.526;2023-05-21T08:14:11;19.30;63.40
22956;DHT22;40888;48.148;11.526;2023-05-21T08:16:36;19.30;62.60
22956;DHT22;40888;48.148;11.526;2023-05-21T08:19:02;19.30;63.70
22956;DHT22;40888;48.148;11.526;2023-05-21T08:21:28;19.30;64.80
22956;DHT22;40888;48.148;11.526;2023-05-21T08:23:54;19.30;65.10
22956;DHT22;40888;48.148;11.526;2023-05-21T08:26:20;19.30;64.10
22956;DHT22;40888;48.148;11.526;2023-05-21T08:28:46;19.40;64.90
22956;DHT22;40888;48.148;11.526;2023-05-21T08:31:12;19.40;66.10
22956;DHT22;40888;48.148;11.526;2023-05-21T08:33:38;19.40;66.50
22956;DHT22;40888;48.148;11.526;2023-05-21T08:36:07;19.40;68.00
22956;DHT22;40888;48.148;11.526;2023-05-21T08:38:33;19.40;68.10
22956;DHT22;40888;48.148;11.526;2023-05-21T08:40:59;19.50;69.00
22956;DHT22;40888;48.148;11.526;2023-05-21T08:43:28;19.40;69.00
22956;DHT22;40888;48.148;11.526;2023-05-21T08:45:55;19.50;70.80
22956;DHT22;40888;48.148;11.526;2023-05-21T08:48:22;19.50;69.20
22956;DHT22;40888;48.148;11.526;2023-05-21T08:50:51;19.70;70.20
22956;DHT22;40888;48.148;11.526;2023-05-21T08:53:16;19.70;69.20
22956;DHT22;40888;48.148;11.526;2023-05-21T08:55:42;19.80;69.20
22956;DHT22;40888;48.148;11.526;2023-05-21T08:58:09;19.90;69.40
22956;DHT22;40888;48.148;11.526;2023-05-21T09:00:35;20.00;70.20
22956;DHT22;40888;48.148;11.526;2023-05-21T09:03:04;20.10;70.30
22956;DHT22;40888;48.148;11.526;2023-05-21T09:05:38;20.00;70.50
22956;DHT22;40888;48.148;11.526;2023-05-21T09:08:06;20.20;70.30
22956;DHT22;40888;48.148;11.526;2023-05-21T09:10:35;20.20;70.30
22956;DHT22;40888;48.148;11.526;2023-05-21T09:13:02;20.30;71.50
22956;DHT22;40888;48.148;11.526;2023-05-21T09:15:29;20.50;71.00
22956;DHT22;40888;48.148;11.526;2023-05-21T09:17:55;20.40;73.90
22956;DHT22;40888;48.148;11.526;2023-05-21T09:20:27;20.70;73.00
22956;DHT22;40888;48.148;11.526;2023-05-21T09:22:53;21.00;73.20
22956;DHT22;40888;48.148;11.526;2023-05-21T09:25:23;21.10;71.30
22956;DHT22;40888;48.148;11.526;2023-05-21T09:27:49;21.20;70.10
22956;DHT22;40888;48.148;11.526;2023-05-21T09:30:16;21.10;72.70
22956;DHT22;40888;48.148;11.526;2023-05-21T09:32:43;21.30;73.20
22956;DHT22;40888;48.148;11.526;2023-05-21T09:35:13;21.50;70.30
22956;DHT22;40888;48.148;11.526;2023-05-21T09:37:44;21.70;69.70
22956;DHT22;40888;48.148;11.526;2023-05-21T09:40:15;21.60;69.80
22956;DHT22;40888;48.148;11.526;2023-05-21T09:42:46;21.80;69.80
22956;DHT22;40888;48.148;11.526;2023-05-21T09:45:17;22.00;67.90
22956;DHT22;40888;48.148;11.526;2023-05-21T09:47:44;22.00;67.40
22956;DHT22;40888;48.148;11.526;2023-05-21T09:50:20;22.10;68.20
22956;DHT22;40888;48.148;11.526;2023-05-21T09:52:47;22.30;67.00
22956;DHT22;40888;48.148;11.526;2023-05-21T09:55:15;22.20;64.20
22956;DHT22;40888;48.148;11.526;2023-05-21T09:57:42;22.40;68.70
22956;DHT22;40888;48.148;11.526;2023-05-21T10:00:28;22.60;66.90
22956;DHT22;40888;48.148;11.526;2023-05-21T10:03:03;22.70;64.70
22956;DHT22;40888;48.148;11.526;2023-05-21T10:05:30;22.90;63.00
22956;DHT22;40888;48.148;11.526;2023-05-21T10:08:01;22.70;63.50
22956;DHT22;40888;48.148;11.526;2023-05-21T10:10:31;23.00;59.20
22956;DHT22;40888;48.148;11.526;2023-05-21T10:15:25;23.10;55.20
22956;DHT22;40888;48.148;11.526;2023-05-21T10:17:54;23.10;56.00
22956;DHT22;40888;48.148;11.526;2023-05-21T10:20:21;23.40;54.40
22956;DHT22;40888;48.148;11.526;2023-05-21T10:22:47;23.50;56.90
22956;DHT22;40888;48.148;11.526;2023-05-21T10:25:14;23.70;55.60
22956;DHT22;40888;48.148;11.526;2023-05-21T10:27:41;23.90;52.00
22956;DHT22;40888;48.148;11.526;2023-05-21T10:30:07;24.20;50.00
22956;DHT22;40888;48.148;11.526;2023-05-21T10:32:33;24.20;47.70
22956;DHT22;40888;48.148;11.526;2023-05-21T10:35:00;24.40;47.20
22956;DHT22;40888;48.148;11.526;2023-05-21T10:37:27;24.20;46.40
22956;DHT22;40888;48.148;11.526;2023-05-21T10:39:54;24.40;45.70
22956;DHT22;40888;48.148;11.526;2023-05-21T10:42:55;24.70;46.00
22956;DHT22;40888;48.148;11.526;2023-05-21T10:48:06;24.90;44.50
22956;DHT22;40888;48.148;11.526;2023-05-21T10:51:03;24.90;44.10
22956;DHT22;40888;48.148;11.526;2023-05-21T10:56:28;24.60;45.20
22956;DHT22;40888;48.148;11.526;2023-05-21T11:01:38;24.80;42.60
22956;DHT22;40888;48.148;11.526;2023-05-21T11:04:05;24.40;43.70
22956;DHT22;40888;48.148;11.526;2023-05-21T11:06:31;24.40;44.50
22956;DHT22;40888;48.148;11.526;2023-05-21T11:09:01;24.60;43.40
22956;DHT22;40888;48.148;11.526;2023-05-21T11:11:41;25.10;41.00
22956;DHT22;40888;48.148;11.526;2023-05-21T11:17:01;25.00;40.30
22956;DHT22;40888;48.148;11.526;2023-05-21T11:19:38;24.90;41.20
22956;DHT22;40888;48.148;11.526;2023-05-21T11:22:26;24.90;44.00
22956;DHT22;40888;48.148;11.526;2023-05-21T11:24:54;24.90;41.60
22956;DHT22;40888;48.148;11.526;2023-05-21T11:27:49;24.80;40.50
22956;DHT22;40888;48.148;11.526;2023-05-21T11:30:16;24.70;40.70
22956;DHT22;40888;48.148;11.526;2023-05-21T11:35:56;24.80;40.00
22956;DHT22;40888;48.148;11.526;2023-05-21T11:38:27;24.80;40.60
22956;DHT22;40888;48.148;11.526;2023-05-21T11:40:53;24.70;41.30
22956;DHT22;40888;48.148;11.526;2023-05-21T11:43:19;24.60;41.20
22956;DHT22;40888;48.148;11.526;2023-05-21T11:45:45;24.90;40.30
22956;DHT22;40888;48.148;11.526;2023-05-21T11:48:15;24.80;39.90
22956;DHT22;40888;48.148;11.526;2023-05-21T11:50:40;24.90;42.10
22956;DHT22;40888;48.148;11.526;2023-05-21T11:53:10;25.30;40.80
22956;DHT22;40888;48.148;11.526;2023-05-21T11:55:39;25.10;43.00
22956;DHT22;40888;48.148;11.526;2023-05-21T11:58:12;25.30;42.40
22956;DHT22;40888;48.148;11.526;2023-05-21T12:00:39;25.10;42.80
22956;DHT22;40888;48.148;11.526;2023-05-21T12:03:05;25.40;42.10
22956;DHT22;40888;48.148;11.526;2023-05-21T12:05:47;25.60;42.10
22956;DHT22;40888;48.148;11.526;2023-05-21T12:08:21;25.60;42.30
22956;DHT22;40888;48.148;11.526;2023-05-21T12:10:47;26.00;42.80
22956;DHT22;40888;48.148;11.526;2023-05-21T12:13:13;25.80;43.70
22956;DHT22;40888;48.148;11.526;2023-05-21T12:15:39;26.30;40.60
22956;DHT22;40888;48.148;11.526;2023-05-21T12:18:05;26.80;37.10
22956;DHT22;40888;48.148;11.526;2023-05-21T12:20:32;26.60;36.30
22956;DHT22;40888;48.148;11.526;2023-05-21T12:22:57;26.70;35.10
22956;DHT22;40888;48.148;11.526;2023-05-21T12:25:23;26.70;34.50
22956;DHT22;40888;48.148;11.526;2023-05-21T12:27:49;26.60;36.40
22956;DHT22;40888;48.148;11.526;2023-05-21T12:30:24;26.80;36.00
22956;DHT22;40888;48.148;11.526;2023-05-21T12:32:50;27.40;36.30
22956;DHT22;40888;48.148;11.526;2023-05-21T12:35:20;27.70;35.40
22956;DHT22;40888;48.148;11.526;2023-05-21T12:37:47;27.60;37.60
22956;DHT22;40888;48.148;11.526;2023-05-21T12:40:15;27.40;35.70
22956;DHT22;40888;48.148;11.526;2023-05-21T12:42:42;27.40;36.00
22956;DHT22;40888;48.148;11.526;2023-05-21T12:45:09;26.90;37.30
22956;DHT22;40888;48.148;11.526;2023-05-21T12:47:35;26.90;37.60
22956;DHT22;40888;48.148;11.526;2023-05-21T12:50:08;27.30;36.70
22956;DHT22;40888;48.148;11.526;2023-05-21T12:52:36;27.70;36.70
22956;DHT22;40888;48.148;11.526;2023-05-21T12:55:01;27.70;40.10
22956;DHT22;40888;48.148;11.526;2023-05-21T12:57:34;28.10;37.70
22956;DHT22;40888;48.148;11.526;2023-05-21T13:00:01;27.70;38.70
22956;DHT22;40888;48.148;11.526;2023-05-21T13:02:31;27.50;38.60
22956;DHT22;40888;48.148;11.526;2023-05-21T13:07:25;27.70;39.30
22956;DHT22;40888;48.148;11.526;2023-05-21T13:09:52;27.90;35.90
22956;DHT22;40888;48.148;11.526;2023-05-21T13:12:19;27.90;37.70
22956;DHT22;40888;48.148;11.526;2023-05-21T13:14:46;27.80;39.40
22956;DHT22;40888;48.148;11.526;2023-05-21T13:17:11;27.20;41.50
22956;DHT22;40888;48.148;11.526;2023-05-21T13:19:37;27.20;40.00
22956;DHT22;40888;48.148;11.526;2023-05-21T13:22:03;27.60;38.90
22956;DHT22;40888;48.148;11.526;2023-05-21T13:24:29;27.90;36.00
22956;DHT22;40888;48.148;11.526;2023-05-21T13:26:54;27.90;34.60
22956;DHT22;40888;48.148;11.526;2023-05-21T13:29:21;28.20;35.10
22956;DHT22;40888;48.148;11.526;2023-05-21T13:31:46;28.50;34.80
22956;DHT22;40888;48.148;11.526;2023-05-21T13:34:12;28.70;36.40
22956;DHT22;40888;48.148;11.526;2023-05-21T13:36:38;28.80;34.10
22956;DHT22;40888;48.148;11.526;2023-05-21T13:39:04;28.50;37.50
22956;DHT22;40888;48.148;11.526;2023-05-21T13:41:30;28.60;34.30
22956;DHT22;40888;48.148;11.526;2023-05-21T13:43:56;28.80;33.00
22956;DHT22;40888;48.148;11.526;2023-05-21T13:46:22;28.70;33.20
22956;DHT22;40888;48.148;11.526;2023-05-21T13:48:47;28.40;35.10
22956;DHT22;40888;48.148;11.526;2023-05-21T13:51:13;28.10;35.30
22956;DHT22;40888;48.148;11.526;2023-05-21T13:53:39;27.50;36.80
22956;DHT22;40888;48.148;11.526;2023-05-21T13:56:05;27.40;38.50
22956;DHT22;40888;48.148;11.526;2023-05-21T13:58:30;27.20;37.80
22956;DHT22;40888;48.148;11.526;2023-05-21T14:01:02;27.50;34.00
22956;DHT22;40888;48.148;11.526;2023-05-21T14:03:28;27.80;33.90
22956;DHT22;40888;48.148;11.526;2023-05-21T14:05:55;27.80;35.10
22956;DHT22;40888;48.148;11.526;2023-05-21T14:08:21;27.80;35.60
22956;DHT22;40888;48.148;11.526;2023-05-21T14:10:48;27.70;35.40
22956;DHT22;40888;48.148;11.526;2023-05-21T14:13:14;27.50;35.30
22956;DHT22;40888;48.148;11.526;2023-05-21T14:15:41;27.40;35.00
22956;DHT22;40888;48.148;11.526;2023-05-21T14:18:07;27.20;35.40
22956;DHT22;40888;48.148;11.526;2023-05-21T14:20:37;27.10;36.80
22956;DHT22;40888;48.148;11.526;2023-05-21T14:23:06;27.10;37.60
22956;DHT22;40888;48.148;11.526;2023-05-21T14:25:31;27.30;37.40
22956;DHT22;40888;48.148;11.526;2023-05-21T14:27:57;27.40;38.70
22956;DHT22;40888;48.148;11.526;2023-05-21T14:30:23;27.50;37.60
22956;DHT22;40888;48.148;11.526;2023-05-21T14:32:48;27.90;38.00
22956;DHT22;40888;48.148;11.526;2023-05-21T14:35:14;27.80;39.20
22956;DHT22;40888;48.148;11.526;2023-05-21T14:37:40;27.60;40.40
22956;DHT22;40888;48.148;11.526;2023-05-21T14:40:06;27.50;40.00
22956;DHT22;40888;48.148;11.526;2023-05-21T14:42:33;27.80;41.00
22956;DHT22;40888;48.148;11.526;2023-05-21T14:44:59;28.10;38.70
22956;DHT22;40888;48.148;11.526;2023-05-21T14:47:25;27.80;39.00
22956;DHT22;40888;48.148;11.526;2023-05-21T14:49:51;28.10;38.70
22956;DHT22;40888;48.148;11.526;2023-05-21T14:52:17;28.00;38.70
22956;DHT22;40888;48.148;11.526;2023-05-21T14:54:42;27.80;40.80
22956;DHT22;40888;48.148;11.526;2023-05-21T14:57:08;27.00;40.20
22956;DHT22;40888;48.148;11.526;2023-05-21T14:59:34;26.70;40.70
22956;DHT22;40888;48.148;11.526;2023-05-21T15:01:59;26.70;42.30
22956;DHT22;40888;48.148;11.526;2023-05-21T15:04:25;26.70;41.50
22956;DHT22;40888;48.148;11.526;2023-05-21T15:06:51;26.80;42.00
22956;DHT22;40888;48.148;11.526;2023-05-21T15:09:17;27.00;41.80
22956;DHT22;40888;48.148;11.526;2023-05-21T15:11:42;27.30;40.10
22956;DHT22;40888;48.148;11.526;2023-05-21T15:14:11;27.30;41.70
22956;DHT22;40888;48.148;11.526;2023-05-21T15:16:36;27.00;41.70
22956;DHT22;40888;48.148;11.526;2023-05-21T15:19:03;27.00;39.80
22956;DHT22;40888;48.148;11.526;2023-05-21T15:21:28;26.90;40.50
22956;DHT22;40888;48.148;11.526;2023-05-21T15:23:54;26.70;41.20
22956;DHT22;40888;48.148;11.526;2023-05-21T15:26:20;26.80;40.80
22956;DHT22;40888;48.148;11.526;2023-05-21T15:28:46;26.80;42.00
22956;DHT22;40888;48.148;11.526;2023-05-21T15:31:11;26.80;42.60
22956;DHT22;40888;48.148;11.526;2023-05-21T15:33:37;26.60;41.90
22956;DHT22;40888;48.148;11.526;2023-05-21T15:36:04;26.70;41.40
22956;DHT22;40888;48.148;11.526;2023-05-21T15:38:30;26.40;41.80
22956;DHT22;40888;48.148;11.526;2023-05-21T15:40:57;26.60;41.90